Time;durP1;ratioP1;P1;durP2;ratioP2;P2;SDS_P1;SDS_P2;PMS_P1;PMS_P2;Temp;Humidity;BMP_temperature;BMP_pressure;BME280_temperature;BME280_humidity;BME280_pressure;Samples;Min_cycle;Max_cycle;Signal;HPM_P1;HPM_P2
2021/01/27 00:01:14;;;;;;;21.13;13.67;;;1.40;99.90;;;;;;5010661;28;20219;-71
2021/01/27 00:03:41;;;;;;;24.50;13.60;;;1.40;99.90;;;;;;5012645;28;20594;-71
2021/01/27 00:06:08;;;;;;;26.70;14.23;;;1.50;99.90;;;;;;5009790;28;20656;-70
2021/01/27 00:08:34;;;;;;;25.03;13.67;;;1.50;99.90;;;;;;5009087;28;20648;-71
2021/01/27 00:11:03;;;;;;;19.90;13.27;;;1.50;99.90;;;;;;5005861;28;20652;-71
2021/01/27 00:13:30;;;;;;;24.23;14.10;;;1.50;99.90;;;;;;5012573;28;20334;-71
2021/01/27 00:15:56;;;;;;;24.47;13.07;;;1.50;99.90;;;;;;5009976;28;20306;-71
2021/01/27 00:18:23;;;;;;;22.73;13.87;;;1.50;99.90;;;;;;5006690;28;20724;-70
2021/01/27 00:20:50;;;;;;;23.67;13.30;;;1.50;99.90;;;;;;5008555;28;20199;-71
2021/01/27 00:23:16;;;;;;;28.10;14.53;;;1.50;99.90;;;;;;5011660;28;20200;-71
2021/01/27 00:25:43;;;;;;;30.27;15.00;;;1.50;99.90;;;;;;5012689;28;20222;-71
2021/01/27 00:28:09;;;;;;;24.03;14.67;;;1.50;99.90;;;;;;5011973;28;20286;-70
2021/01/27 00:30:38;;;;;;;27.20;14.80;;;1.50;99.90;;;;;;5009744;28;20205;-71
2021/01/27 00:33:05;;;;;;;27.97;14.87;;;1.40;99.90;;;;;;5013124;28;20290;-70
2021/01/27 00:35:36;;;;;;;25.70;13.90;;;1.50;99.90;;;;;;4992895;28;20215;-71
2021/01/27 00:38:16;;;;;;;26.23;15.13;;;1.50;99.90;;;;;;5011171;28;20226;-71
2021/01/27 00:40:42;;;;;;;25.47;14.33;;;1.50;99.90;;;;;;5007574;28;20662;-70
2021/01/27 00:43:10;;;;;;;24.37;13.57;;;1.40;99.90;;;;;;5013801;28;20214;-71
2021/01/27 00:45:36;;;;;;;24.27;14.53;;;1.40;99.90;;;;;;5011588;28;20572;-70
2021/01/27 00:48:04;;;;;;;27.60;14.17;;;1.40;99.90;;;;;;5013555;28;20666;-71
2021/01/27 00:50:30;;;;;;;25.10;14.50;;;1.40;99.90;;;;;;5014793;28;20249;-72
2021/01/27 00:52:58;;;;;;;28.90;15.37;;;1.40;99.90;;;;;;5015492;28;20295;-71
2021/01/27 00:55:27;;;;;;;27.53;15.43;;;1.40;99.90;;;;;;5013970;28;20294;-71
2021/01/27 00:57:53;;;;;;;25.40;13.97;;;1.50;99.90;;;;;;5014315;28;20717;-72
2021/01/27 01:00:22;;;;;;;24.90;14.73;;;1.50;99.90;;;;;;5015985;28;20380;-72
2021/01/27 01:02:49;;;;;;;23.53;13.90;;;1.50;99.90;;;;;;5014926;28;20214;-73
2021/01/27 01:05:19;;;;;;;26.03;14.33;;;1.50;99.90;;;;;;5014273;28;20207;-72
2021/01/27 01:07:46;;;;;;;30.33;15.00;;;1.50;99.90;;;;;;5015516;28;20722;-73
2021/01/27 01:10:19;;;;;;;26.80;14.47;;;1.50;99.90;;;;;;5012631;28;20371;-72
2021/01/27 01:12:45;;;;;;;25.13;15.40;;;1.50;99.90;;;;;;5013349;28;20385;-70
2021/01/27 01:15:13;;;;;;;26.00;15.27;;;1.50;99.90;;;;;;5012479;28;20231;-71
2021/01/27 01:17:39;;;;;;;25.17;15.07;;;1.50;99.90;;;;;;5008437;28;20235;-71
2021/01/27 01:20:13;;;;;;;29.73;15.50;;;1.50;99.90;;;;;;5008928;28;20211;-71
2021/01/27 01:22:40;;;;;;;28.47;15.27;;;1.50;99.90;;;;;;5010429;28;20211;-71
2021/01/27 01:25:07;;;;;;;23.93;14.50;;;1.50;99.90;;;;;;5013538;28;20204;-71
2021/01/27 01:27:35;;;;;;;27.70;15.60;;;1.50;99.90;;;;;;5015973;28;20610;-70
2021/01/27 01:30:01;;;;;;;27.97;14.33;;;1.50;99.90;;;;;;5015975;28;20206;-70
2021/01/27 01:32:28;;;;;;;25.53;14.63;;;1.60;99.90;;;;;;5010452;28;20211;-71
2021/01/27 01:34:54;;;;;;;26.93;14.03;;;1.60;99.90;;;;;;5013163;28;20222;-73
2021/01/27 01:37:20;;;;;;;25.63;14.53;;;1.60;99.90;;;;;;5014361;28;20318;-71
2021/01/27 01:39:48;;;;;;;24.30;13.77;;;1.60;99.90;;;;;;5009327;28;20199;-71
2021/01/27 01:42:17;;;;;;;25.70;14.13;;;1.60;99.90;;;;;;5013032;28;20241;-71
2021/01/27 01:44:45;;;;;;;25.37;14.53;;;1.70;99.90;;;;;;5011375;28;20216;-72
2021/01/27 01:47:11;;;;;;;25.07;14.23;;;1.60;99.90;;;;;;5013902;28;20215;-71
2021/01/27 01:49:38;;;;;;;24.23;13.43;;;1.60;99.90;;;;;;5011419;28;20634;-70
2021/01/27 01:52:05;;;;;;;25.93;14.40;;;1.60;99.90;;;;;;5008666;28;20211;-70
2021/01/27 01:54:37;;;;;;;26.20;13.90;;;1.60;99.90;;;;;;5007767;28;20203;-71
2021/01/27 01:57:09;;;;;;;24.70;13.70;;;1.60;99.90;;;;;;5012737;28;20748;-69
2021/01/27 01:59:38;;;;;;;26.93;14.37;;;1.60;99.90;;;;;;5012585;28;20203;-71
2021/01/27 02:02:08;;;;;;;24.07;13.77;;;1.60;99.90;;;;;;5015444;28;20207;-72
2021/01/27 02:04:40;;;;;;;26.13;14.50;;;1.60;99.90;;;;;;5008949;28;20298;-72
2021/01/27 02:07:07;;;;;;;24.20;13.80;;;1.60;99.90;;;;;;4997321;28;20682;-71
2021/01/27 02:09:33;;;;;;;25.33;14.07;;;1.60;99.90;;;;;;5012551;28;20212;-72
2021/01/27 02:12:14;;;;;;;22.77;13.27;;;1.60;99.90;;;;;;5013868;28;20204;-71
2021/01/27 02:15:01;;;;;;;24.60;14.03;;;1.60;99.90;;;;;;5013448;28;20673;-71
2021/01/27 02:17:35;;;;;;;26.93;14.00;;;1.60;99.90;;;;;;5010647;28;21167;-71
2021/01/27 02:20:33;;;;;;;20.17;12.97;;;1.60;99.90;;;;;;5011158;28;20211;-72
2021/01/27 02:23:41;;;;;;;20.50;12.50;;;1.60;99.90;;;;;;5004933;28;20242;-71
2021/01/27 02:26:35;;;;;;;24.77;14.03;;;1.70;99.90;;;;;;5014915;28;20207;-72
2021/01/27 02:29:16;;;;;;;21.40;13.33;;;1.60;99.90;;;;;;5018361;28;20235;-72
2021/01/27 02:31:47;;;;;;;21.53;12.47;;;1.60;99.90;;;;;;5013412;28;20731;-72
2021/01/27 02:34:58;;;;;;;25.97;14.47;;;1.60;99.90;;;;;;5015136;28;20215;-72
2021/01/27 02:37:30;;;;;;;21.60;12.90;;;1.60;99.90;;;;;;4957735;28;20256;-72
2021/01/27 02:40:02;;;;;;;23.77;13.20;;;1.60;99.90;;;;;;4957132;29;20201;-72
2021/01/27 02:42:36;;;;;;;22.10;13.03;;;1.60;99.90;;;;;;4985998;28;20668;-71
2021/01/27 02:45:08;;;;;;;25.33;13.50;;;1.60;99.90;;;;;;5014290;28;20255;-71
2021/01/27 02:47:41;;;;;;;22.23;12.67;;;1.60;99.90;;;;;;5013967;28;20200;-72
2021/01/27 02:50:11;;;;;;;19.03;12.60;;;1.60;99.90;;;;;;5015545;28;20227;-71
2021/01/27 02:52:43;;;;;;;22.93;12.60;;;1.60;99.90;;;;;;5011073;28;20218;-72
2021/01/27 02:55:12;;;;;;;21.90;12.87;;;1.60;99.90;;;;;;5012569;28;20599;-70
2021/01/27 02:57:46;;;;;;;23.10;12.30;;;1.60;99.90;;;;;;5014311;28;20714;-72
2021/01/27 03:00:20;;;;;;;20.33;11.83;;;1.60;99.90;;;;;;5010285;28;20207;-72
2021/01/27 03:02:52;;;;;;;20.83;11.70;;;1.60;99.90;;;;;;5013765;28;20211;-72
2021/01/27 03:05:22;;;;;;;22.80;11.23;;;1.60;99.90;;;;;;5013477;28;20692;-71
2021/01/27 03:07:52;;;;;;;22.23;12.00;;;1.60;99.90;;;;;;5014817;28;20294;-72
2021/01/27 03:10:22;;;;;;;21.10;11.47;;;1.70;99.90;;;;;;5014180;28;20644;-71
2021/01/27 03:12:49;;;;;;;17.77;11.13;;;1.70;99.90;;;;;;5010400;28;20207;-71
2021/01/27 03:15:16;;;;;;;18.77;10.73;;;1.70;99.90;;;;;;5010015;28;20199;-71
2021/01/27 03:17:44;;;;;;;17.70;10.53;;;1.60;99.90;;;;;;5013523;28;20250;-71
2021/01/27 03:20:16;;;;;;;17.13;10.90;;;1.60;99.90;;;;;;5010295;28;20207;-71
2021/01/27 03:22:46;;;;;;;17.93;10.43;;;1.60;99.90;;;;;;5009414;28;20211;-72
2021/01/27 03:25:20;;;;;;;16.50;10.37;;;1.60;99.90;;;;;;5008444;28;20290;-72
2021/01/27 03:27:55;;;;;;;15.77;9.17;;;1.60;99.90;;;;;;5009091;28;20199;-71
2021/01/27 03:30:22;;;;;;;16.10;9.80;;;1.60;99.90;;;;;;5013096;28;20214;-71
2021/01/27 03:32:52;;;;;;;16.37;9.70;;;1.60;99.90;;;;;;5008043;28;20207;-72
2021/01/27 03:35:28;;;;;;;15.93;9.40;;;1.60;99.90;;;;;;5010886;28;20203;-72
2021/01/27 03:37:59;;;;;;;13.23;8.57;;;1.60;99.90;;;;;;5006856;28;20231;-72
2021/01/27 03:40:27;;;;;;;12.63;8.67;;;1.60;99.90;;;;;;5011087;28;20671;-70
2021/01/27 03:43:01;;;;;;;18.93;8.97;;;1.60;99.90;;;;;;5011996;28;20295;-72
2021/01/27 03:45:31;;;;;;;13.50;8.23;;;1.60;99.90;;;;;;5012763;28;20205;-71
2021/01/27 03:48:06;;;;;;;16.77;8.70;;;1.60;99.90;;;;;;5012242;28;20206;-72
2021/01/27 03:50:34;;;;;;;12.93;8.53;;;1.60;99.90;;;;;;5009758;28;20207;-71
2021/01/27 03:53:04;;;;;;;12.37;7.70;;;1.60;99.90;;;;;;5011292;28;20215;-71
2021/01/27 03:55:36;;;;;;;12.63;7.60;;;1.70;99.90;;;;;;5012987;28;20383;-71
2021/01/27 03:58:09;;;;;;;11.53;7.97;;;1.70;99.90;;;;;;5013307;28;20215;-71
2021/01/27 04:00:35;;;;;;;13.23;7.97;;;1.70;99.90;;;;;;5006533;28;20237;-72
2021/01/27 04:03:07;;;;;;;13.93;8.37;;;1.60;99.90;;;;;;5009927;28;20230;-70
2021/01/27 04:05:34;;;;;;;12.57;8.27;;;1.70;99.90;;;;;;5009818;28;20625;-71
2021/01/27 04:08:01;;;;;;;12.37;7.47;;;1.70;99.90;;;;;;5012980;28;20203;-71
2021/01/27 04:10:27;;;;;;;11.67;7.50;;;1.70;99.90;;;;;;5011110;28;20554;-72
2021/01/27 04:12:54;;;;;;;12.43;7.53;;;1.70;99.90;;;;;;5009726;28;20203;-72
2021/01/27 04:15:21;;;;;;;12.83;7.37;;;1.70;99.90;;;;;;5009819;28;20216;-71
2021/01/27 04:17:47;;;;;;;9.20;6.83;;;1.80;99.90;;;;;;5012304;28;20815;-71
2021/01/27 04:20:14;;;;;;;11.17;7.27;;;1.70;99.90;;;;;;5007388;28;20222;-71
2021/01/27 04:22:41;;;;;;;11.80;7.23;;;1.70;99.90;;;;;;5010575;28;20248;-72
2021/01/27 04:25:08;;;;;;;12.40;7.77;;;1.70;99.90;;;;;;5011985;28;20656;-72
2021/01/27 04:27:34;;;;;;;11.83;7.10;;;1.70;99.90;;;;;;5011495;28;20216;-72
2021/01/27 04:30:03;;;;;;;11.13;7.30;;;1.70;99.90;;;;;;5012304;28;20613;-72
2021/01/27 04:32:29;;;;;;;14.10;7.20;;;1.70;99.90;;;;;;5009712;28;20206;-70
2021/01/27 04:34:55;;;;;;;10.43;5.80;;;1.70;99.90;;;;;;5011883;28;20636;-70
2021/01/27 04:37:22;;;;;;;10.07;6.30;;;1.70;99.90;;;;;;5010979;28;20207;-70
2021/01/27 04:39:48;;;;;;;10.90;6.33;;;1.60;99.90;;;;;;5011516;28;20286;-71
2021/01/27 04:42:14;;;;;;;11.17;6.43;;;1.60;99.90;;;;;;5007322;28;20275;-71
2021/01/27 04:44:41;;;;;;;10.80;6.73;;;1.70;99.90;;;;;;5009922;28;20219;-71
2021/01/27 04:47:15;;;;;;;9.53;6.10;;;1.60;99.90;;;;;;5010065;28;20223;-72
2021/01/27 04:49:46;;;;;;;9.90;6.27;;;1.70;99.90;;;;;;5008466;28;20275;-71
2021/01/27 04:52:18;;;;;;;8.97;6.13;;;1.60;99.90;;;;;;5008212;28;20294;-72
2021/01/27 04:55:00;;;;;;;9.03;6.33;;;1.60;99.90;;;;;;5010510;28;20204;-71
2021/01/27 04:57:50;;;;;;;9.00;6.00;;;1.60;99.90;;;;;;5015114;28;21209;-71
2021/01/27 05:00:41;;;;;;;11.67;6.63;;;1.70;99.90;;;;;;5011738;28;20290;-71
2021/01/27 05:03:34;;;;;;;9.03;5.97;;;1.60;99.90;;;;;;5012760;28;21284;-71
2021/01/27 05:06:04;;;;;;;8.50;5.47;;;1.60;99.90;;;;;;5011620;28;20226;-72
2021/01/27 05:08:34;;;;;;;9.60;6.00;;;1.60;99.90;;;;;;5014641;28;20632;-71
2021/01/27 05:11:04;;;;;;;10.13;6.13;;;1.60;99.90;;;;;;5011511;28;20210;-72
2021/01/27 05:13:34;;;;;;;11.97;5.80;;;1.60;99.90;;;;;;5013201;28;20702;-71
2021/01/27 05:16:04;;;;;;;11.37;5.63;;;1.60;99.90;;;;;;5016357;28;20227;-71
2021/01/27 05:18:31;;;;;;;8.53;5.10;;;1.60;99.90;;;;;;5015397;28;20239;-71
2021/01/27 05:20:57;;;;;;;8.73;5.07;;;1.60;99.90;;;;;;5011294;28;20349;-71
2021/01/27 05:23:24;;;;;;;7.57;5.30;;;1.60;99.90;;;;;;5012257;28;20211;-71
2021/01/27 05:26:00;;;;;;;12.83;5.67;;;1.60;99.90;;;;;;5013491;28;20618;-72
2021/01/27 05:28:33;;;;;;;8.17;5.30;;;1.60;99.90;;;;;;5015331;28;21806;-71
2021/01/27 05:31:00;;;;;;;8.80;5.10;;;1.60;99.90;;;;;;5014979;28;20199;-71
2021/01/27 05:33:43;;;;;;;6.07;5.10;;;1.60;99.90;;;;;;5014383;28;20561;-72
2021/01/27 05:36:14;;;;;;;8.67;5.10;;;1.60;99.90;;;;;;5014867;28;20544;-72
2021/01/27 05:38:41;;;;;;;7.57;4.83;;;1.60;99.90;;;;;;5015848;28;20231;-72
2021/01/27 05:41:14;;;;;;;10.57;5.50;;;1.70;99.90;;;;;;5009488;28;20765;-71
2021/01/27 05:43:41;;;;;;;7.13;4.47;;;1.70;99.90;;;;;;5014799;28;20218;-71
2021/01/27 05:46:17;;;;;;;9.27;4.47;;;1.70;99.90;;;;;;5013229;28;20227;-72
2021/01/27 05:48:47;;;;;;;5.77;4.10;;;1.70;99.90;;;;;;4997353;28;20769;-72
2021/01/27 05:51:18;;;;;;;5.67;4.07;;;1.60;99.90;;;;;;5013729;28;20207;-73
2021/01/27 05:53:45;;;;;;;6.63;4.30;;;1.60;99.90;;;;;;5015624;28;20579;-72
2021/01/27 05:56:16;;;;;;;6.70;4.33;;;1.60;99.90;;;;;;5011470;28;20245;-72
2021/01/27 05:58:47;;;;;;;5.87;3.93;;;1.60;99.90;;;;;;5015733;28;20219;-72
2021/01/27 06:01:18;;;;;;;7.07;3.77;;;1.60;99.90;;;;;;5011687;28;20211;-71
2021/01/27 06:03:55;;;;;;;5.37;3.47;;;1.60;99.90;;;;;;5015004;28;20311;-71
2021/01/27 06:06:22;;;;;;;4.30;3.43;;;1.60;99.90;;;;;;5015323;28;20245;-72
2021/01/27 06:08:51;;;;;;;3.33;2.90;;;1.60;99.90;;;;;;5014073;28;20207;-71
2021/01/27 06:11:18;;;;;;;4.80;3.03;;;1.60;99.90;;;;;;5013369;28;20268;-74
2021/01/27 06:13:45;;;;;;;4.97;3.00;;;1.50;99.90;;;;;;5014556;28;20592;-72
2021/01/27 06:16:19;;;;;;;4.73;3.03;;;1.60;99.90;;;;;;5014559;28;20238;-70
2021/01/27 06:18:46;;;;;;;3.67;2.63;;;1.50;99.90;;;;;;5013068;28;20777;-71
2021/01/27 06:21:46;;;;;;;6.10;2.70;;;1.60;99.90;;;;;;4995425;28;20207;-71
2021/01/27 06:24:53;;;;;;;3.90;2.30;;;1.50;99.90;;;;;;5003921;28;20208;-72
2021/01/27 06:27:47;;;;;;;3.13;2.50;;;1.60;99.90;;;;;;4998483;28;20243;-72
2021/01/27 06:30:48;;;;;;;5.03;2.10;;;1.60;99.90;;;;;;5011392;28;20229;-72
2021/01/27 06:33:44;;;;;;;3.17;2.43;;;1.60;99.90;;;;;;5010469;28;20644;-73
2021/01/27 06:36:34;;;;;;;3.77;2.20;;;1.60;99.90;;;;;;4999140;28;20591;-72
2021/01/27 06:39:13;;;;;;;2.93;1.83;;;1.60;99.90;;;;;;5014363;28;20211;-73
2021/01/27 06:42:02;;;;;;;3.07;2.43;;;1.60;99.90;;;;;;5006140;28;20218;-71
2021/01/27 06:44:42;;;;;;;2.97;2.00;;;1.70;99.90;;;;;;5010081;28;20212;-73
2021/01/27 06:47:41;;;;;;;3.87;1.90;;;1.70;99.90;;;;;;5014082;28;20291;-72
2021/01/27 06:50:29;;;;;;;3.37;1.53;;;1.70;99.90;;;;;;5006508;28;20772;-72
2021/01/27 06:53:31;;;;;;;3.20;1.87;;;1.70;99.90;;;;;;5003383;28;20218;-73
2021/01/27 06:56:07;;;;;;;4.30;1.80;;;1.70;99.90;;;;;;5004026;28;20246;-72
2021/01/27 06:59:04;;;;;;;2.70;1.67;;;1.70;99.90;;;;;;5002336;28;20302;-72
2021/01/27 07:01:48;;;;;;;3.63;2.20;;;1.70;99.90;;;;;;5010662;28;20290;-72
2021/01/27 07:04:47;;;;;;;2.43;1.70;;;1.70;99.90;;;;;;5015134;28;20213;-71
2021/01/27 07:07:35;;;;;;;2.80;2.20;;;1.70;99.90;;;;;;4997207;28;20214;-72
2021/01/27 07:10:41;;;;;;;3.40;1.60;;;1.70;99.90;;;;;;5006671;28;20203;-73
2021/01/27 07:13:27;;;;;;;2.13;1.60;;;1.70;99.90;;;;;;5010156;28;20282;-73
2021/01/27 07:15:59;;;;;;;4.87;1.70;;;1.80;99.90;;;;;;5007391;28;20222;-71
2021/01/27 07:18:56;;;;;;;2.17;1.83;;;1.80;99.90;;;;;;5004918;28;20333;-71
2021/01/27 07:21:29;;;;;;;2.43;1.30;;;1.80;99.90;;;;;;5008507;28;20199;-70
2021/01/27 07:24:01;;;;;;;2.43;1.43;;;1.80;99.90;;;;;;5013100;28;20663;-71
2021/01/27 07:26:35;;;;;;;1.97;1.60;;;1.80;99.90;;;;;;5007626;28;20315;-71
2021/01/27 07:29:06;;;;;;;2.53;1.40;;;1.80;99.90;;;;;;5010546;28;20204;-71
2021/01/27 07:31:37;;;;;;;2.37;1.50;;;1.80;99.90;;;;;;5008207;28;20192;-74
2021/01/27 07:34:07;;;;;;;3.90;1.80;;;1.80;99.90;;;;;;5013322;28;20302;-73
2021/01/27 07:36:45;;;;;;;2.47;1.73;;;1.80;99.90;;;;;;5014748;28;20286;-71
2021/01/27 07:39:19;;;;;;;3.03;1.60;;;1.80;99.90;;;;;;5010628;28;20215;-71
2021/01/27 07:41:53;;;;;;;4.40;1.50;;;1.80;99.90;;;;;;5003608;28;20225;-78
2021/01/27 07:44:21;;;;;;;2.80;1.90;;;1.80;99.90;;;;;;5014270;28;20287;-74
2021/01/27 07:46:59;;;;;;;2.00;1.67;;;1.80;99.90;;;;;;5010325;28;20208;-74
2021/01/27 07:49:37;;;;;;;1.90;1.70;;;1.80;99.90;;;;;;5015748;28;20302;-75
2021/01/27 07:52:10;;;;;;;2.10;1.80;;;1.80;99.90;;;;;;5007270;28;20311;-74
2021/01/27 07:54:42;;;;;;;2.60;2.13;;;1.80;99.90;;;;;;5015944;28;20211;-73
2021/01/27 07:57:27;;;;;;;5.90;2.40;;;1.90;99.90;;;;;;5015290;28;20211;-75
2021/01/27 08:00:05;;;;;;;3.03;1.90;;;1.90;99.90;;;;;;5009806;28;20557;-73
2021/01/27 08:02:35;;;;;;;2.80;2.00;;;1.90;99.90;;;;;;5005892;28;20290;-74
2021/01/27 08:05:09;;;;;;;3.10;1.70;;;1.90;99.90;;;;;;5014985;28;20957;-75
2021/01/27 08:07:39;;;;;;;1.90;1.70;;;1.90;99.90;;;;;;5018026;28;20268;-76
2021/01/27 08:10:14;;;;;;;2.90;2.20;;;1.90;99.90;;;;;;5007856;28;20343;-72
2021/01/27 08:12:46;;;;;;;2.53;2.03;;;1.90;99.90;;;;;;5006422;28;20246;-73
2021/01/27 08:15:35;;;;;;;2.50;2.30;;;1.90;99.90;;;;;;5015791;28;20618;-72
2021/01/27 08:18:12;;;;;;;3.93;2.37;;;1.90;99.90;;;;;;5014256;28;20239;-75
2021/01/27 08:20:41;;;;;;;2.50;1.93;;;1.90;99.90;;;;;;5012846;28;20226;-73
2021/01/27 08:23:09;;;;;;;4.00;2.30;;;1.90;99.90;;;;;;4999087;28;20319;-71
2021/01/27 08:25:51;;;;;;;2.97;2.20;;;2.00;99.90;;;;;;5012787;28;20281;-71
2021/01/27 08:28:26;;;;;;;4.20;2.60;;;2.00;99.90;;;;;;5002854;28;20641;-68
2021/01/27 08:31:16;;;;;;;4.93;2.30;;;2.00;99.90;;;;;;5003101;28;20199;-71
2021/01/27 08:33:53;;;;;;;3.80;2.60;;;2.00;99.90;;;;;;5011006;28;20215;-70
2021/01/27 08:36:21;;;;;;;3.83;2.37;;;1.90;99.90;;;;;;5008738;28;20215;-70
2021/01/27 08:39:02;;;;;;;5.70;3.00;;;1.90;99.90;;;;;;5009631;28;20694;-70
2021/01/27 08:41:42;;;;;;;4.90;3.03;;;1.90;99.90;;;;;;5004039;28;20211;-75
2021/01/27 08:44:23;;;;;;;5.47;3.50;;;1.90;99.90;;;;;;5010992;28;20571;-75
2021/01/27 08:46:53;;;;;;;4.90;3.10;;;1.90;99.90;;;;;;5008890;28;20207;-75
2021/01/27 08:49:43;;;;;;;4.77;3.47;;;1.90;99.90;;;;;;5012868;28;20234;-75
2021/01/27 08:52:51;;;;;;;4.13;3.00;;;1.90;99.90;;;;;;5008886;28;20273;-72
2021/01/27 08:55:50;;;;;;;4.47;3.10;;;1.90;99.90;;;;;;5010560;28;20222;-75
2021/01/27 08:58:35;;;;;;;5.00;3.13;;;1.90;99.90;;;;;;5014208;28;20302;-74
2021/01/27 09:01:09;;;;;;;4.83;3.43;;;1.90;99.90;;;;;;5011415;28;20206;-74
2021/01/27 09:04:07;;;;;;;5.20;3.63;;;1.90;99.90;;;;;;5014735;28;20224;-76
2021/01/27 09:06:41;;;;;;;4.73;3.20;;;1.90;99.90;;;;;;5013122;28;20675;-76
2021/01/27 09:09:31;;;;;;;5.23;3.17;;;1.90;99.90;;;;;;5008620;28;20219;-75
2021/01/27 09:12:00;;;;;;;5.03;3.00;;;1.80;99.90;;;;;;5015206;28;20207;-75
2021/01/27 09:14:27;;;;;;;2.43;2.23;;;1.90;99.90;;;;;;5003239;28;20295;-74
2021/01/27 09:16:57;;;;;;;5.10;2.30;;;1.90;99.90;;;;;;5011503;28;20235;-75
2021/01/27 09:19:28;;;;;;;4.53;2.27;;;1.90;99.90;;;;;;5008955;28;20330;-74
2021/01/27 09:22:05;;;;;;;4.37;2.80;;;1.90;99.90;;;;;;5014823;28;20200;-73
2021/01/27 09:24:36;;;;;;;5.60;2.73;;;1.90;99.90;;;;;;5005241;28;20369;-76
2021/01/27 09:27:20;;;;;;;4.23;2.87;;;1.90;99.90;;;;;;4991405;28;20203;-73
2021/01/27 09:29:53;;;;;;;4.20;2.67;;;1.90;99.90;;;;;;5009225;28;20273;-74
2021/01/27 09:32:20;;;;;;;4.67;2.83;;;2.00;99.90;;;;;;5011827;28;20208;-74
2021/01/27 09:34:49;;;;;;;5.33;2.90;;;2.00;99.90;;;;;;5006408;28;20691;-74
2021/01/27 09:37:20;;;;;;;6.80;2.63;;;2.10;99.90;;;;;;5012534;28;20218;-74
2021/01/27 09:39:52;;;;;;;4.07;2.43;;;2.10;99.90;;;;;;5011499;28;20640;-76
2021/01/27 09:42:27;;;;;;;3.07;2.40;;;2.10;99.90;;;;;;5012642;28;20261;-75
2021/01/27 09:44:58;;;;;;;4.70;2.17;;;2.10;99.90;;;;;;5013011;28;20318;-74
2021/01/27 09:47:24;;;;;;;3.83;2.37;;;2.20;99.90;;;;;;5015456;28;20280;-72
2021/01/27 09:49:54;;;;;;;4.63;2.80;;;2.20;99.90;;;;;;5015028;28;20639;-72
2021/01/27 09:52:21;;;;;;;5.27;2.57;;;2.20;99.90;;;;;;5010299;28;20211;-73
2021/01/27 09:54:50;;;;;;;3.27;2.00;;;2.20;99.90;;;;;;5009091;28;20211;-74
2021/01/27 09:57:19;;;;;;;4.90;2.13;;;2.20;99.90;;;;;;5016509;28;20218;-76
2021/01/27 09:59:49;;;;;;;4.00;2.20;;;2.20;99.90;;;;;;5011034;28;20607;-73
2021/01/27 10:02:15;;;;;;;3.63;2.47;;;2.30;99.90;;;;;;5011875;28;20204;-73
2021/01/27 10:04:42;;;;;;;5.17;2.30;;;2.30;99.90;;;;;;4993438;28;20222;-72
2021/01/27 10:07:14;;;;;;;2.37;1.77;;;2.30;99.90;;;;;;5011465;28;20237;-75
2021/01/27 10:09:49;;;;;;;3.63;2.30;;;2.30;99.90;;;;;;5014720;28;20522;-74
2021/01/27 10:12:22;;;;;;;4.40;2.10;;;2.30;99.90;;;;;;5015768;28;20810;-74
2021/01/27 10:14:56;;;;;;;5.73;2.13;;;2.40;99.90;;;;;;5006554;28;20342;-73
2021/01/27 10:17:28;;;;;;;4.60;2.40;;;2.40;99.90;;;;;;5001985;28;20255;-72
2021/01/27 10:20:05;;;;;;;3.33;2.23;;;2.50;99.90;;;;;;5006294;28;20306;-72
2021/01/27 10:22:36;;;;;;;5.00;1.83;;;2.40;99.90;;;;;;5005542;28;20254;-73
2021/01/27 10:25:04;;;;;;;4.00;1.93;;;2.50;99.90;;;;;;5004615;28;20230;-75
2021/01/27 10:27:35;;;;;;;5.60;2.43;;;2.40;99.90;;;;;;4998053;28;20212;-72
2021/01/27 10:30:05;;;;;;;7.33;3.97;;;2.40;99.90;;;;;;5012421;28;20211;-73
2021/01/27 10:32:37;;;;;;;2.73;2.27;;;2.40;99.90;;;;;;5009947;28;20208;-73
2021/01/27 10:35:29;;;;;;;5.37;3.20;;;2.40;99.90;;;;;;5013993;28;20234;-71
2021/01/27 10:38:18;;;;;;;3.97;2.67;;;2.40;99.90;;;;;;5011361;28;20277;-72
2021/01/27 10:41:07;;;;;;;3.00;2.60;;;2.50;99.90;;;;;;5012199;28;20304;-72
2021/01/27 10:43:33;;;;;;;2.63;1.80;;;2.50;99.90;;;;;;5004329;28;20712;-72
2021/01/27 10:46:00;;;;;;;4.07;2.03;;;2.50;99.90;;;;;;5012561;28;20294;-73
2021/01/27 10:48:28;;;;;;;4.07;2.27;;;2.60;99.90;;;;;;5015085;28;20550;-73
2021/01/27 10:51:01;;;;;;;3.27;2.20;;;2.60;99.90;;;;;;5014821;28;20250;-73
2021/01/27 10:53:29;;;;;;;4.23;2.80;;;2.60;99.90;;;;;;5012625;28;20689;-75
2021/01/27 10:55:56;;;;;;;4.37;2.30;;;2.50;99.90;;;;;;5014684;28;20221;-74
2021/01/27 10:58:24;;;;;;;4.50;2.40;;;2.50;99.90;;;;;;5014348;28;20290;-73
2021/01/27 11:00:51;;;;;;;4.63;2.77;;;2.60;99.90;;;;;;5010704;28;20207;-74
2021/01/27 11:03:18;;;;;;;3.33;2.10;;;2.50;99.90;;;;;;5011836;28;20208;-74
2021/01/27 11:05:45;;;;;;;4.33;2.50;;;2.60;99.90;;;;;;5003473;28;20203;-73
2021/01/27 11:08:14;;;;;;;4.50;2.27;;;2.60;99.90;;;;;;5009828;28;20368;-72
2021/01/27 11:10:42;;;;;;;4.50;2.67;;;2.60;99.90;;;;;;5005447;28;20655;-72
2021/01/27 11:13:10;;;;;;;5.63;2.70;;;2.60;99.90;;;;;;5003728;28;20786;-71
2021/01/27 11:15:37;;;;;;;3.37;2.40;;;2.60;99.90;;;;;;4990075;28;20207;-73
2021/01/27 11:18:04;;;;;;;3.07;2.10;;;2.60;99.90;;;;;;5014032;28;20250;-71
2021/01/27 11:20:30;;;;;;;3.17;2.23;;;2.50;99.90;;;;;;5003770;28;20298;-71
2021/01/27 11:22:57;;;;;;;4.77;3.00;;;2.50;99.90;;;;;;5008472;28;20664;-72
2021/01/27 11:25:25;;;;;;;5.03;2.93;;;2.50;99.90;;;;;;5004597;28;20666;-71
2021/01/27 11:27:53;;;;;;;4.60;3.20;;;2.50;99.90;;;;;;5006724;28;20211;-72
2021/01/27 11:30:24;;;;;;;4.53;2.83;;;2.50;99.90;;;;;;5014693;28;20209;-71
2021/01/27 11:32:51;;;;;;;4.03;2.60;;;2.60;99.90;;;;;;4992821;28;20586;-72
2021/01/27 11:35:18;;;;;;;9.43;3.13;;;2.60;99.90;;;;;;5010776;28;20299;-72
2021/01/27 11:37:46;;;;;;;4.53;2.73;;;2.60;99.90;;;;;;5008787;28;20298;-74
2021/01/27 11:40:14;;;;;;;5.20;2.70;;;2.70;99.90;;;;;;5013345;28;20235;-74
2021/01/27 11:42:41;;;;;;;6.23;3.43;;;2.70;99.90;;;;;;5013016;28;20219;-73
2021/01/27 11:45:09;;;;;;;5.33;3.33;;;2.60;99.90;;;;;;5003232;28;20663;-74
2021/01/27 11:47:36;;;;;;;4.77;3.00;;;2.60;99.90;;;;;;5011853;28;20207;-73
2021/01/27 11:50:04;;;;;;;4.83;3.03;;;2.70;99.90;;;;;;5014032;28;20221;-73
2021/01/27 11:52:30;;;;;;;8.13;3.13;;;2.60;99.90;;;;;;5013380;28;20595;-72
2021/01/27 11:54:57;;;;;;;5.73;2.90;;;2.70;99.90;;;;;;5013604;28;20226;-73
2021/01/27 11:57:24;;;;;;;4.37;2.93;;;2.70;99.90;;;;;;5002543;28;20258;-72
2021/01/27 11:59:50;;;;;;;4.93;3.20;;;2.70;99.90;;;;;;5002140;28;20224;-72
2021/01/27 12:02:17;;;;;;;5.17;2.90;;;2.60;99.90;;;;;;5012471;28;20319;-72
2021/01/27 12:04:44;;;;;;;5.03;2.90;;;2.60;99.90;;;;;;4999314;28;20208;-73
2021/01/27 12:07:10;;;;;;;5.17;2.67;;;2.50;99.90;;;;;;5012321;28;20302;-73
2021/01/27 12:09:37;;;;;;;6.13;3.00;;;2.50;99.90;;;;;;5001845;28;20299;-75
2021/01/27 12:12:05;;;;;;;6.57;2.93;;;2.50;99.90;;;;;;5012788;28;20215;-74
2021/01/27 12:14:31;;;;;;;4.47;2.80;;;2.50;99.90;;;;;;5012981;28;20214;-71
2021/01/27 12:16:58;;;;;;;5.43;3.10;;;2.40;99.90;;;;;;5012776;28;20580;-72
2021/01/27 12:19:26;;;;;;;6.13;3.43;;;2.40;99.90;;;;;;5004896;28;20294;-73
2021/01/27 12:21:52;;;;;;;6.47;3.70;;;2.50;99.90;;;;;;5007255;28;20298;-73
2021/01/27 12:24:18;;;;;;;3.53;2.80;;;2.50;99.90;;;;;;5002861;28;20290;-74
2021/01/27 12:26:45;;;;;;;4.73;3.17;;;2.50;99.90;;;;;;5008352;28;20222;-73
2021/01/27 12:29:12;;;;;;;4.40;3.07;;;2.40;99.90;;;;;;5013129;28;20234;-73
2021/01/27 12:31:39;;;;;;;5.90;3.20;;;2.40;99.90;;;;;;5012951;28;20668;-72
2021/01/27 12:34:05;;;;;;;4.60;2.90;;;2.40;99.90;;;;;;5001370;28;20910;-73
2021/01/27 12:36:32;;;;;;;6.00;2.93;;;2.40;99.90;;;;;;5011827;28;20219;-73
2021/01/27 12:38:59;;;;;;;5.83;2.60;;;2.40;99.90;;;;;;5004479;28;20230;-72
2021/01/27 12:41:25;;;;;;;4.13;2.83;;;2.40;99.90;;;;;;5010292;28;20245;-72
2021/01/27 12:43:53;;;;;;;3.83;2.57;;;2.40;99.90;;;;;;5003916;28;20312;-72
2021/01/27 12:46:20;;;;;;;3.40;2.30;;;2.40;99.90;;;;;;5004440;28;20250;-72
2021/01/27 12:48:47;;;;;;;4.97;2.40;;;2.40;99.90;;;;;;5012746;28;20301;-73
2021/01/27 12:51:13;;;;;;;3.47;2.30;;;2.60;99.90;;;;;;5007987;28;20294;-73
2021/01/27 12:53:42;;;;;;;1.70;1.50;;;2.50;99.90;;;;;;5005759;28;20229;-72
2021/01/27 12:56:08;;;;;;;3.37;1.93;;;2.50;99.90;;;;;;5008360;28;20245;-73
2021/01/27 12:58:34;;;;;;;3.83;1.83;;;2.50;99.90;;;;;;5008767;28;20246;-74
2021/01/27 13:01:04;;;;;;;2.10;1.67;;;2.50;99.90;;;;;;5008290;28;20216;-73
2021/01/27 13:03:30;;;;;;;2.77;1.70;;;2.50;99.90;;;;;;5011977;28;20230;-73
2021/01/27 13:05:56;;;;;;;4.87;2.50;;;2.50;99.90;;;;;;5009457;28;20204;-71
2021/01/27 13:08:23;;;;;;;4.63;2.10;;;2.50;99.90;;;;;;5009356;28;20294;-69
2021/01/27 13:10:50;;;;;;;4.87;2.17;;;2.40;99.90;;;;;;5012545;28;20687;-72
2021/01/27 13:13:17;;;;;;;4.83;1.80;;;2.50;99.90;;;;;;5005301;28;20208;-71
2021/01/27 13:15:43;;;;;;;3.10;2.00;;;2.50;99.90;;;;;;4993139;28;20263;-72
2021/01/27 13:18:10;;;;;;;2.87;2.17;;;2.50;99.90;;;;;;5003195;28;20591;-72